Time;durP1;ratioP1;P1;durP2;ratioP2;P2;SDS_P1;SDS_P2;PMS_P1;PMS_P2;Temp;Humidity;BMP_temperature;BMP_pressure;BME280_temperature;BME280_humidity;BME280_pressure;Samples;Min_cycle;Max_cycle;Signal;HPM_P1;HPM_P2
2022/07/01 00:04:45;;;;;;;4.32;1.20;;;14.00;99.90;;;13.76;100.00;97299.31;4969806;28;20092;-40
2022/07/01 00:07:11;;;;;;;3.05;1.20;;;14.00;99.90;;;13.77;100.00;97306.34;4966701;28;20500;-41
2022/07/01 00:09:38;;;;;;;2.63;1.02;;;14.10;99.90;;;13.79;100.00;97301.81;4973486;28;20042;-40
2022/07/01 00:12:05;;;;;;;2.53;1.23;;;14.10;99.90;;;13.72;100.00;97293.31;4968452;28;20449;-40
2022/07/01 00:14:31;;;;;;;4.50;1.30;;;14.00;99.90;;;13.69;100.00;97305.88;4966678;28;20034;-40
2022/07/01 00:16:57;;;;;;;7.20;1.65;;;14.00;99.90;;;13.58;100.00;97306.41;4975833;28;20079;-40
2022/07/01 00:19:24;;;;;;;4.32;1.00;;;13.90;99.90;;;13.51;100.00;97307.66;4972720;28;20495;-40
2022/07/01 00:21:50;;;;;;;5.65;1.40;;;13.80;99.90;;;13.41;100.00;97307.28;4969390;28;20782;-41
2022/07/01 00:24:16;;;;;;;3.08;1.20;;;13.70;99.90;;;13.42;100.00;97316.94;4976283;28;20042;-40
2022/07/01 00:26:42;;;;;;;3.28;1.20;;;13.70;99.90;;;13.38;100.00;97312.72;4966636;28;20035;-39
2022/07/01 00:29:07;;;;;;;2.63;1.02;;;13.70;99.90;;;13.32;100.00;97318.34;4970108;28;20042;-40
2022/07/01 00:31:33;;;;;;;2.95;1.20;;;13.60;99.90;;;13.27;100.00;97326.47;4964839;28;20034;-39
2022/07/01 00:33:59;;;;;;;4.30;1.10;;;13.60;99.90;;;13.26;100.00;97323.88;4966642;28;20556;-40
2022/07/01 00:36:25;;;;;;;3.40;1.05;;;13.60;99.90;;;13.27;100.00;97320.31;4967910;28;20030;-40
2022/07/01 00:38:50;;;;;;;1.23;0.63;;;13.60;99.90;;;13.28;100.00;97322.91;4969981;28;20506;-40
2022/07/01 00:41:16;;;;;;;4.38;1.08;;;13.60;99.90;;;13.22;100.00;97307.28;4970940;28;20030;-40
2022/07/01 00:43:42;;;;;;;2.85;0.90;;;13.50;99.90;;;13.18;100.00;97317.19;4971516;28;20137;-41
2022/07/01 00:46:08;;;;;;;2.42;0.70;;;13.50;99.90;;;13.15;100.00;97301.47;4970709;28;20501;-40
2022/07/01 00:48:36;;;;;;;1.27;0.63;;;13.50;99.90;;;13.12;100.00;97288.34;4965508;28;20038;-40
2022/07/01 00:51:02;;;;;;;0.90;0.80;;;13.40;99.90;;;13.16;100.00;97289.91;4952307;28;20054;-40
2022/07/01 00:53:29;;;;;;;4.97;1.20;;;13.50;99.90;;;13.13;100.00;97289.22;4965864;28;20129;-40
2022/07/01 00:55:55;;;;;;;3.13;0.80;;;13.50;99.90;;;13.12;100.00;97288.34;4967986;28;20030;-40
2022/07/01 00:58:21;;;;;;;3.28;0.90;;;13.40;99.90;;;13.10;100.00;97292.88;4973767;28;20434;-40
2022/07/01 01:00:47;;;;;;;2.60;1.45;;;13.40;99.90;;;13.06;100.00;97288.66;4964519;28;20036;-39
2022/07/01 01:03:13;;;;;;;2.50;0.80;;;13.40;99.90;;;13.06;100.00;97283.34;4974456;28;20027;-40
2022/07/01 01:05:40;;;;;;;2.05;1.17;;;13.40;99.90;;;13.11;100.00;97283.97;4968396;28;20039;-40
2022/07/01 01:08:08;;;;;;;3.17;1.20;;;13.40;99.90;;;13.16;100.00;97283.78;4956809;28;20736;-40
2022/07/01 01:10:36;;;;;;;2.35;0.88;;;13.50;99.90;;;13.21;100.00;97281.75;4963462;28;20080;-40
2022/07/01 01:13:03;;;;;;;1.23;0.75;;;13.50;99.90;;;13.23;100.00;97281.69;4970188;28;20038;-40
2022/07/01 01:15:30;;;;;;;2.13;0.80;;;13.50;99.90;;;13.23;100.00;97276.38;4962085;28;20444;-41
2022/07/01 01:17:56;;;;;;;1.77;1.00;;;13.50;99.90;;;13.21;100.00;97267.63;4969180;28;20042;-40
2022/07/01 01:20:22;;;;;;;1.65;0.82;;;13.50;99.90;;;13.21;100.00;97267.63;4971187;28;20022;-39
2022/07/01 01:22:48;;;;;;;1.65;0.70;;;13.50;99.90;;;13.13;100.00;97270.69;4967264;28;20037;-39
2022/07/01 01:25:15;;;;;;;2.03;1.08;;;13.50;99.90;;;13.08;100.00;97260.31;4971269;28;20334;-40
2022/07/01 01:27:41;;;;;;;2.42;0.95;;;13.50;99.90;;;13.17;100.00;97262.53;4969931;28;20066;-40
2022/07/01 01:30:11;;;;;;;1.95;1.10;;;13.50;99.90;;;13.09;100.00;97271.75;4968373;28;20116;-40
2022/07/01 01:32:38;;;;;;;1.30;0.70;;;13.50;99.90;;;12.88;100.00;97248.03;4965279;28;20034;-40
2022/07/01 01:35:04;;;;;;;2.15;0.70;;;13.40;99.90;;;12.99;100.00;97252.81;4964279;28;20407;-40
2022/07/01 01:37:30;;;;;;;2.05;0.75;;;13.30;99.90;;;13.02;100.00;97259.75;4960234;28;20105;-40
2022/07/01 01:39:57;;;;;;;1.20;0.63;;;13.40;99.90;;;12.97;100.00;97250.25;4967513;28;20082;-40
2022/07/01 01:42:23;;;;;;;2.72;0.63;;;13.30;99.90;;;13.07;100.00;97255.09;4970756;28;20041;-40
2022/07/01 01:44:49;;;;;;;3.80;0.65;;;13.40;99.90;;;13.01;100.00;97240.38;4963397;28;20034;-40
2022/07/01 01:47:14;;;;;;;5.75;0.60;;;13.40;99.90;;;12.98;100.00;97241.38;4963345;28;20046;-41
2022/07/01 01:49:40;;;;;;;1.30;0.70;;;13.30;99.90;;;13.03;100.00;97235.88;4967632;28;20081;-40
2022/07/01 01:52:06;;;;;;;5.28;0.80;;;13.30;99.90;;;12.98;100.00;97224.66;4962024;28;20062;-40
2022/07/01 01:54:32;;;;;;;1.17;0.70;;;13.30;99.90;;;13.00;100.00;97228.06;4963041;28;20023;-40
2022/07/01 01:56:58;;;;;;;0.75;0.63;;;13.30;99.90;;;12.99;100.00;97221.03;4962068;28;20038;-40
2022/07/01 01:59:24;;;;;;;1.83;0.90;;;13.30;99.90;;;12.98;100.00;97211.41;4967365;28;20109;-39
2022/07/01 02:01:49;;;;;;;1.65;0.75;;;13.30;99.90;;;13.01;100.00;97191.84;4965065;28;20391;-40
2022/07/01 02:04:15;;;;;;;0.98;0.65;;;13.30;99.90;;;13.04;100.00;97187.25;4966141;28;20109;-39
2022/07/01 02:06:41;;;;;;;1.73;0.90;;;13.30;99.90;;;12.93;100.00;97182.50;4963846;28;20121;-40
2022/07/01 02:09:08;;;;;;;1.38;0.70;;;13.30;99.90;;;12.92;100.00;97162.28;4963649;28;20026;-39
2022/07/01 02:11:35;;;;;;;2.70;0.73;;;13.30;99.90;;;12.87;100.00;97171.41;4968037;28;20031;-40
2022/07/01 02:14:01;;;;;;;3.72;0.77;;;13.20;99.90;;;12.84;100.00;97168.88;4970440;28;20045;-40
2022/07/01 02:16:27;;;;;;;0.98;0.70;;;13.20;99.90;;;12.82;100.00;97170.75;4964060;28;20454;-39
2022/07/01 02:18:53;;;;;;;2.42;0.93;;;13.20;99.90;;;12.88;100.00;97167.78;4967379;28;20034;-40
2022/07/01 02:21:18;;;;;;;0.95;0.60;;;13.20;99.90;;;12.88;100.00;97171.28;4962632;28;20035;-40
2022/07/01 02:23:44;;;;;;;1.52;0.90;;;13.20;99.90;;;12.86;100.00;97157.28;4963652;28;20032;-40
2022/07/01 02:26:10;;;;;;;4.00;0.95;;;13.20;99.90;;;12.87;100.00;97161.66;4965020;28;20154;-40
2022/07/01 02:28:35;;;;;;;0.60;0.60;;;13.20;99.90;;;12.78;100.00;97144.44;4968352;28;20116;-40
2022/07/01 02:31:02;;;;;;;1.77;0.85;;;13.20;99.90;;;12.84;100.00;97158.31;4968500;28;20418;-40
2022/07/01 02:33:29;;;;;;;2.72;0.85;;;13.20;99.90;;;12.83;100.00;97164.53;4965680;28;20039;-40
2022/07/01 02:35:55;;;;;;;1.63;0.93;;;13.20;99.90;;;12.77;100.00;97174.47;4961992;28;21229;-40
2022/07/01 02:38:21;;;;;;;1.27;0.88;;;13.10;99.90;;;12.73;100.00;97180.84;4963409;28;20093;-40
2022/07/01 02:40:46;;;;;;;1.90;0.85;;;13.10;99.90;;;12.79;100.00;97184.97;4962571;28;20027;-40
2022/07/01 02:43:12;;;;;;;1.70;0.85;;;13.10;99.90;;;12.65;100.00;97196.25;4956529;28;20593;-41
2022/07/01 02:45:38;;;;;;;1.90;1.00;;;13.00;99.90;;;12.63;100.00;97198.09;4959666;28;20045;-41
2022/07/01 02:48:04;;;;;;;1.23;0.80;;;13.00;99.90;;;12.62;100.00;97200.84;4963863;28;20035;-40
2022/07/01 02:50:30;;;;;;;3.08;1.10;;;13.00;99.90;;;12.60;100.00;97198.28;4963320;28;21204;-40
2022/07/01 02:52:56;;;;;;;4.43;1.38;;;13.00;99.90;;;12.54;100.00;97201.19;4965093;28;20039;-40
2022/07/01 02:55:21;;;;;;;2.33;1.20;;;12.90;99.90;;;12.50;100.00;97195.19;4963551;28;20031;-40
2022/07/01 02:57:51;;;;;;;2.22;1.38;;;12.90;99.90;;;12.51;100.00;97204.00;4959852;28;20033;-40
2022/07/01 03:00:18;;;;;;;4.88;1.90;;;12.90;99.90;;;12.53;100.00;97197.69;4970093;28;20270;-40
2022/07/01 03:02:45;;;;;;;6.82;1.60;;;12.90;99.90;;;12.52;100.00;97192.47;4972471;28;20044;-40
2022/07/01 03:05:11;;;;;;;5.90;1.80;;;12.90;99.90;;;12.39;100.00;97187.78;4965085;28;20130;-40
2022/07/01 03:07:38;;;;;;;2.95;1.70;;;12.90;99.90;;;12.54;100.00;97214.41;4960540;28;20550;-40
2022/07/01 03:10:06;;;;;;;3.20;1.77;;;12.90;99.90;;;12.50;100.00;97212.88;4968241;28;20041;-41
2022/07/01 03:12:35;;;;;;;3.03;1.38;;;12.90;99.90;;;12.51;100.00;97230.47;4967811;28;20038;-41
2022/07/01 03:15:15;;;;;;;2.30;1.30;;;12.80;99.90;;;12.42;100.00;97223.81;4965813;28;20450;-41
2022/07/01 03:17:48;;;;;;;2.30;1.23;;;12.80;99.90;;;12.44;100.00;97236.97;4966343;28;20030;-40
2022/07/01 03:20:16;;;;;;;1.73;1.23;;;12.80;99.90;;;12.46;100.00;97243.03;4967854;28;20494;-41
2022/07/01 03:22:44;;;;;;;1.60;1.00;;;12.80;99.90;;;12.46;100.00;97250.97;4964698;28;20038;-40
2022/07/01 03:25:10;;;;;;;2.17;1.30;;;12.80;99.90;;;12.52;100.00;97242.72;4973148;28;20129;-41
2022/07/01 03:27:36;;;;;;;1.95;1.05;;;12.80;99.90;;;12.51;100.00;97247.19;4973989;28;20185;-41
2022/07/01 03:30:06;;;;;;;4.80;1.40;;;12.90;99.90;;;12.55;100.00;97242.59;4963760;28;20391;-41
2022/07/01 03:32:33;;;;;;;3.42;1.00;;;12.90;99.90;;;12.55;100.00;97251.38;4968220;28;20042;-41
2022/07/01 03:34:59;;;;;;;2.45;1.30;;;12.90;99.90;;;12.54;100.00;97267.31;4951639;28;20030;-41
2022/07/01 03:37:24;;;;;;;2.33;1.10;;;12.90;99.90;;;12.58;100.00;97284.78;4965234;28;20081;-41
2022/07/01 03:39:51;;;;;;;2.92;1.30;;;12.90;99.90;;;12.55;100.00;97288.41;4965541;28;20027;-41
2022/07/01 03:42:17;;;;;;;3.03;1.40;;;12.90;99.90;;;12.52;100.00;97279.78;4974625;28;20036;-41
2022/07/01 03:44:44;;;;;;;2.88;1.00;;;12.90;99.90;;;12.57;100.00;97293.63;4972542;28;20034;-41
2022/07/01 03:47:11;;;;;;;2.05;1.13;;;12.90;99.90;;;12.59;100.00;97299.72;4972801;28;20235;-40
2022/07/01 03:49:36;;;;;;;2.25;1.30;;;12.90;99.90;;;12.58;100.00;97298.88;4975694;28;20030;-40
2022/07/01 03:52:04;;;;;;;4.45;1.38;;;13.00;99.90;;;12.61;100.00;97311.06;4971838;28;20361;-40
2022/07/01 03:54:30;;;;;;;2.75;1.60;;;13.00;99.90;;;12.60;100.00;97315.53;4974940;28;20504;-40
2022/07/01 03:57:03;;;;;;;7.43;1.50;;;13.00;99.90;;;12.57;100.00;97325.38;4962906;28;20493;-40
2022/07/01 03:59:35;;;;;;;2.08;1.30;;;13.00;99.90;;;12.58;100.00;97303.31;4964816;28;20048;-40
2022/07/01 04:02:02;;;;;;;3.90;1.30;;;13.00;99.90;;;12.59;100.00;97310.28;4973459;28;20062;-39
2022/07/01 04:04:28;;;;;;;5.90;1.80;;;13.00;99.90;;;12.64;100.00;97332.09;4966034;28;20030;-40
2022/07/01 04:06:57;;;;;;;4.03;1.88;;;13.00;99.90;;;12.64;100.00;97341.84;4970479;28;20069;-41
2022/07/01 04:09:24;;;;;;;4.60;1.80;;;13.00;99.90;;;12.59;100.00;97349.97;4966866;28;20097;-40
2022/07/01 04:11:50;;;;;;;2.80;1.73;;;13.00;99.90;;;12.56;100.00;97360.69;4951474;28;20467;-40
2022/07/01 04:14:17;;;;;;;2.55;1.50;;;12.90;99.90;;;12.33;100.00;97336.16;4973747;28;20114;-41
2022/07/01 04:16:44;;;;;;;4.28;1.17;;;12.90;99.90;;;12.49;100.00;97362.78;4956509;28;20038;-40
2022/07/01 04:19:11;;;;;;;2.13;1.23;;;12.90;99.90;;;12.45;100.00;97381.50;4960787;28;20117;-40
2022/07/01 04:24:22;;;;;;;1.90;1.10;;;12.80;99.90;;;12.49;100.00;97388.34;4969533;28;20046;-40
2022/07/01 04:26:48;;;;;;;1.88;1.30;;;12.80;99.90;;;12.44;100.00;97393.00;4972373;28;20038;-41
2022/07/01 04:29:14;;;;;;;2.90;1.13;;;12.80;99.90;;;12.49;100.00;97404.22;4972508;28;20482;-40
2022/07/01 04:31:40;;;;;;;4.07;1.40;;;12.90;99.90;;;12.54;100.00;97405.75;4964073;28;20038;-40
2022/07/01 04:34:07;;;;;;;2.60;1.52;;;12.90;99.90;;;12.48;100.00;97405.16;4967835;28;20034;-41
2022/07/01 04:36:34;;;;;;;2.75;1.33;;;12.90;99.90;;;12.48;100.00;97397.22;4954966;28;20399;-41
2022/07/01 04:39:00;;;;;;;4.03;1.70;;;12.90;99.90;;;12.52;100.00;97394.38;4968169;28;20030;-40
2022/07/01 04:44:10;;;;;;;2.78;1.20;;;12.90;99.90;;;12.58;100.00;97383.53;4968745;28;20096;-41
2022/07/01 04:46:36;;;;;;;2.90;1.23;;;12.90;99.90;;;12.57;100.00;97384.44;4964533;28;20070;-41
2022/07/01 04:49:02;;;;;;;1.65;1.10;;;12.90;99.90;;;12.52;100.00;97388.22;4965119;28;20041;-40
2022/07/01 04:51:28;;;;;;;1.80;1.20;;;12.90;99.90;;;12.56;100.00;97395.97;4965400;28;20051;-40
2022/07/01 04:53:54;;;;;;;2.25;1.27;;;12.90;99.90;;;12.63;100.00;97398.31;4971809;28;20054;-40
2022/07/01 04:56:21;;;;;;;5.15;1.25;;;12.90;99.90;;;12.62;100.00;97394.81;4972758;28;20026;-41
2022/07/01 04:58:47;;;;;;;2.38;1.20;;;13.00;99.90;;;12.58;100.00;97388.81;4970389;28;20373;-41
2022/07/01 05:01:13;;;;;;;4.93;1.35;;;13.00;99.90;;;12.65;100.00;97393.81;4976621;28;20038;-41
2022/07/01 05:03:39;;;;;;;2.55;1.40;;;13.00;99.90;;;12.67;100.00;97406.06;4963685;28;20533;-41
2022/07/01 05:06:05;;;;;;;4.97;1.50;;;13.00;99.90;;;12.67;100.00;97406.06;4969976;28;20319;-41
2022/07/01 05:08:31;;;;;;;3.13;1.27;;;13.00;99.90;;;12.68;100.00;97412.19;4972546;28;20034;-41
2022/07/01 05:10:56;;;;;;;3.72;1.70;;;13.00;99.90;;;12.68;100.00;97399.81;4971477;28;20042;-40
2022/07/01 05:13:23;;;;;;;2.13;1.20;;;13.00;99.90;;;12.65;100.00;97409.69;4975880;28;20068;-41
2022/07/01 05:15:48;;;;;;;2.65;1.60;;;13.00;99.90;;;12.61;100.00;97411.63;4976640;28;20033;-40
2022/07/01 05:23:42;;;;;;;3.03;1.50;;;13.00;99.90;;;12.57;100.00;97415.34;4968587;28;20506;-41
2022/07/01 05:26:08;;;;;;;4.10;1.83;;;13.00;99.90;;;12.61;100.00;97406.31;4964039;28;20038;-41
2022/07/01 05:28:33;;;;;;;4.03;1.65;;;13.00;99.90;;;12.65;100.00;97407.94;4970138;28;20033;-40
2022/07/01 05:30:59;;;;;;;2.03;1.20;;;13.00;99.90;;;12.68;100.00;97391.88;4968203;28;20042;-41
2022/07/01 05:33:27;;;;;;;3.95;1.40;;;13.00;99.90;;;12.70;100.00;97402.41;4969752;28;20137;-40
2022/07/01 05:35:54;;;;;;;2.13;1.42;;;13.00;99.90;;;12.71;100.00;97398.84;4966326;28;20034;-41
2022/07/01 05:38:19;;;;;;;4.18;1.70;;;13.10;99.90;;;12.77;100.00;97402.03;4965569;28;20146;-40
2022/07/01 05:40:45;;;;;;;2.13;1.30;;;13.10;99.90;;;12.83;100.00;97397.41;4959614;28;20508;-41
2022/07/01 05:43:11;;;;;;;2.85;1.42;;;13.20;99.90;;;12.87;100.00;97404.28;4959723;28;20050;-41
2022/07/01 05:45:37;;;;;;;1.70;1.35;;;13.20;99.90;;;12.93;100.00;97409.28;4962302;28;20707;-40
2022/07/01 05:48:03;;;;;;;5.07;1.73;;;13.20;99.90;;;12.95;100.00;97408.28;4966054;28;20295;-41
2022/07/01 05:50:28;;;;;;;3.20;1.75;;;13.30;99.90;;;12.97;100.00;97416.16;4968700;28;20045;-41
2022/07/01 05:52:54;;;;;;;2.53;1.80;;;13.30;99.90;;;12.99;100.00;97417.81;4973907;28;20419;-41
2022/07/01 05:55:20;;;;;;;4.93;2.13;;;13.30;99.90;;;13.04;100.00;97424.69;4968539;28;20038;-40
2022/07/01 05:57:45;;;;;;;5.28;1.90;;;13.30;99.90;;;13.02;100.00;97418.59;4972201;28;20045;-40
2022/07/01 06:00:12;;;;;;;5.28;2.08;;;13.40;99.90;;;12.99;100.00;97415.16;4970634;28;20486;-40
2022/07/01 06:02:38;;;;;;;3.83;2.30;;;13.40;99.90;;;13.01;100.00;97415.09;4970312;28;20022;-41
2022/07/01 06:05:05;;;;;;;3.20;2.60;;;13.30;99.90;;;13.03;100.00;97410.59;4971561;28;20027;-41
2022/07/01 06:07:31;;;;;;;4.07;2.42;;;13.40;99.90;;;13.06;100.00;97415.72;4968856;28;20042;-41
2022/07/01 06:09:57;;;;;;;3.03;2.03;;;13.40;99.90;;;13.02;100.00;97402.72;4976666;23;20065;-40
2022/07/01 06:12:22;;;;;;;4.38;2.47;;;13.40;99.90;;;13.06;100.00;97410.44;4936151;28;20065;-41
2022/07/01 06:14:48;;;;;;;6.38;2.92;;;13.40;99.90;;;13.04;100.00;97420.22;4958829;28;20518;-41
2022/07/01 06:17:15;;;;;;;5.13;2.55;;;13.40;99.90;;;13.05;100.00;97426.41;4951308;28;20118;-40
2022/07/01 06:19:41;;;;;;;4.13;2.42;;;13.40;99.90;;;13.00;100.00;97410.72;4945993;28;20066;-40
2022/07/01 06:22:06;;;;;;;3.42;2.22;;;13.40;99.90;;;13.13;100.00;97435.69;4933011;28;20122;-40
2022/07/01 06:24:32;;;;;;;2.95;2.17;;;13.40;99.90;;;13.13;100.00;97438.34;4926687;28;20478;-40
2022/07/01 06:26:59;;;;;;;4.00;2.00;;;13.50;99.90;;;13.14;100.00;97452.47;4937326;28;20395;-40
2022/07/01 06:29:27;;;;;;;3.03;1.95;;;13.50;99.90;;;13.18;100.00;97460.16;4932264;28;20039;-40
2022/07/01 06:31:53;;;;;;;2.83;1.90;;;13.50;99.90;;;13.23;100.00;97451.16;4934819;28;20036;-40
2022/07/01 06:34:18;;;;;;;4.05;2.20;;;13.60;99.90;;;13.25;100.00;97450.16;4934882;28;20538;-40
2022/07/01 06:36:44;;;;;;;3.38;2.00;;;13.60;99.90;;;13.27;100.00;97447.44;4934230;28;20031;-40
2022/07/01 06:39:10;;;;;;;3.45;2.38;;;13.60;99.90;;;13.28;100.00;97452.66;4935383;28;20031;-40
2022/07/01 06:41:36;;;;;;;3.08;2.13;;;13.60;99.90;;;13.33;100.00;97447.16;4934315;28;20030;-40
2022/07/01 06:44:04;;;;;;;2.90;2.30;;;13.70;99.90;;;13.42;100.00;97464.41;4935779;28;20444;-40
2022/07/01 06:46:31;;;;;;;3.97;2.75;;;13.70;99.90;;;13.40;100.00;97458.34;4934014;28;20030;-40
2022/07/01 06:48:58;;;;;;;4.90;2.10;;;13.80;99.90;;;13.43;100.00;97453.75;4941144;28;20028;-41
2022/07/01 06:51:24;;;;;;;4.47;2.63;;;13.80;99.90;;;13.47;100.00;97462.41;4935151;28;20504;-40
2022/07/01 06:53:50;;;;;;;3.28;1.90;;;13.80;99.90;;;13.48;100.00;97457.06;4940010;28;20564;-41
2022/07/01 06:56:17;;;;;;;3.75;2.17;;;13.80;99.90;;;13.53;100.00;97459.47;4931156;28;20028;-40
2022/07/01 06:58:43;;;;;;;2.67;1.88;;;13.90;99.90;;;13.54;100.00;97464.69;4928706;28;20036;-41
2022/07/01 07:01:09;;;;;;;3.20;2.50;;;13.90;99.90;;;13.49;100.00;97477.28;4938794;28;20110;-40
2022/07/01 07:03:35;;;;;;;3.88;2.13;;;13.90;99.90;;;13.45;100.00;97467.78;4930905;28;20368;-40
2022/07/01 07:06:02;;;;;;;3.03;1.88;;;13.90;99.90;;;13.58;100.00;97472.50;4911565;28;20716;-41
2022/07/01 07:08:30;;;;;;;2.30;1.75;;;13.90;99.90;;;13.68;100.00;97479.94;4925810;28;20066;-41
2022/07/01 07:10:56;;;;;;;5.20;1.80;;;14.00;99.90;;;13.76;100.00;97495.47;4931408;28;20506;-40
2022/07/01 07:13:22;;;;;;;3.30;1.85;;;14.10;99.90;;;13.87;100.00;97493.16;4930592;28;20146;-40
2022/07/01 07:15:48;;;;;;;4.57;2.20;;;14.20;99.90;;;14.00;100.00;97500.50;4932324;28;20488;-40
2022/07/01 07:18:13;;;;;;;3.53;1.73;;;14.30;99.90;;;14.00;100.00;97506.69;4922245;28;21143;-41
2022/07/01 07:20:39;;;;;;;3.55;1.80;;;14.40;99.90;;;14.05;100.00;97504.66;4928502;28;20047;-41
2022/07/01 07:23:05;;;;;;;2.65;1.67;;;14.40;99.90;;;14.05;100.00;97490.53;4931723;28;20046;-42
2022/07/01 07:25:31;;;;;;;3.58;1.63;;;14.50;99.90;;;14.20;100.00;97489.78;4936715;28;20040;-42
2022/07/01 07:27:57;;;;;;;2.45;1.67;;;14.50;99.90;;;14.36;100.00;97507.59;4941502;28;20054;-41
2022/07/01 07:30:23;;;;;;;3.40;1.63;;;14.60;99.90;;;14.31;100.00;97502.50;4941546;28;20453;-41
2022/07/01 07:32:49;;;;;;;2.70;1.45;;;14.70;99.90;;;14.19;100.00;97517.22;4937231;28;20043;-42
2022/07/01 07:35:15;;;;;;;1.48;1.38;;;14.60;99.90;;;14.11;100.00;97511.47;4924212;28;20076;-41
2022/07/01 07:37:42;;;;;;;2.35;1.35;;;14.50;99.90;;;14.09;100.00;97508.03;4938997;28;20392;-41
2022/07/01 07:40:11;;;;;;;2.95;2.20;;;14.50;99.90;;;14.12;100.00;97508.72;4927012;28;20031;-42
2022/07/01 07:42:39;;;;;;;2.63;1.63;;;14.50;99.90;;;14.12;100.00;97511.38;4928466;28;20036;-42
2022/07/01 07:45:06;;;;;;;3.92;1.75;;;14.50;99.90;;;14.21;100.00;97511.84;4930803;29;20035;-43
2022/07/01 07:47:33;;;;;;;3.53;1.60;;;14.60;99.90;;;14.23;100.00;97500.25;4930762;28;20042;-44
2022/07/01 07:49:59;;;;;;;3.97;1.58;;;14.60;99.90;;;14.39;100.00;97488.84;4932814;28;20057;-42
2022/07/01 07:52:25;;;;;;;1.60;1.30;;;14.60;99.90;;;14.52;100.00;97497.91;4930396;29;20484;-42
2022/07/01 07:54:50;;;;;;;2.20;1.40;;;14.80;99.90;;;14.61;100.00;97500.13;4940052;28;20082;-42
2022/07/01 07:57:16;;;;;;;2.25;1.42;;;14.90;99.90;;;14.60;100.00;97503.69;4932743;28;20074;-42
2022/07/01 07:59:42;;;;;;;3.50;1.60;;;14.90;99.90;;;14.54;100.00;97496.03;4928513;28;20494;-43
2022/07/01 08:02:08;;;;;;;1.70;1.25;;;14.80;99.90;;;14.45;100.00;97492.03;4930062;28;20081;-41
2022/07/01 08:04:33;;;;;;;3.83;1.95;;;14.80;99.90;;;14.40;100.00;97499.38;4930280;28;20107;-42
2022/07/01 08:06:59;;;;;;;2.35;1.40;;;14.70;99.90;;;14.37;100.00;97499.53;4936277;28;20027;-42
2022/07/01 08:09:26;;;;;;;2.28;1.67;;;14.60;99.90;;;14.31;100.00;97519.25;4940717;28;20820;-42
2022/07/01 08:11:51;;;;;;;1.75;1.50;;;14.60;99.90;;;14.18;100.00;97526.13;4940492;29;20066;-42
2022/07/01 08:14:17;;;;;;;4.40;1.60;;;14.50;99.90;;;14.18;100.00;97520.81;4938498;29;20027;-42
2022/07/01 08:16:43;;;;;;;2.75;1.80;;;14.50;99.90;;;14.08;100.00;97520.41;4937865;28;20094;-44
2022/07/01 08:19:08;;;;;;;3.50;1.65;;;14.40;99.90;;;14.00;100.00;97522.59;4939940;28;20502;-42
2022/07/01 08:21:34;;;;;;;2.85;1.60;;;14.40;99.90;;;13.89;100.00;97535.50;4929302;28;20408;-42
2022/07/01 08:24:00;;;;;;;4.30;1.52;;;14.20;99.90;;;13.82;100.00;97540.25;4936396;28;20499;-42
2022/07/01 08:26:25;;;;;;;2.30;1.40;;;14.20;99.90;;;13.80;100.00;97527.97;4934473;29;20039;-42
2022/07/01 08:28:51;;;;;;;1.92;1.23;;;14.20;99.90;;;13.88;100.00;97537.28;4935979;29;20031;-43
2022/07/01 08:31:17;;;;;;;2.15;1.60;;;14.20;99.90;;;13.95;100.00;97548.47;4928747;28;20058;-44
2022/07/01 08:33:42;;;;;;;2.53;1.63;;;14.20;99.90;;;13.81;100.00;97519.97;4935650;28;20040;-42
2022/07/01 08:36:10;;;;;;;2.00;1.50;;;14.20;99.90;;;13.98;100.00;97544.78;4934079;28;20034;-42
2022/07/01 08:38:37;;;;;;;2.30;1.75;;;14.30;99.90;;;13.91;100.00;97544.25;4924750;29;20314;-42
2022/07/01 08:41:04;;;;;;;4.40;1.83;;;14.30;99.90;;;13.96;100.00;97554.63;4928467;28;20036;-42
2022/07/01 08:43:30;;;;;;;1.42;1.30;;;14.30;99.90;;;13.95;100.00;97553.78;4938408;28;20039;-43
2022/07/01 08:46:01;;;;;;;1.77;1.48;;;14.30;99.90;;;13.97;100.00;97564.31;4935391;28;20041;-41
2022/07/01 08:48:28;;;;;;;2.13;1.58;;;14.30;99.90;;;14.00;100.00;97566.78;4934543;28;20146;-43
2022/07/01 08:50:54;;;;;;;2.38;1.50;;;14.30;99.90;;;14.01;100.00;97566.72;4928044;28;20029;-41
2022/07/01 08:53:21;;;;;;;2.10;1.40;;;14.30;99.90;;;14.13;100.00;97573.22;4937934;28;20369;-43
2022/07/01 08:58:31;;;;;;;4.05;1.90;;;14.50;99.90;;;14.38;100.00;97567.59;4937280;28;20038;-41
2022/07/01 09:01:24;;;;;;;2.72;1.42;;;14.70;99.90;;;14.57;100.00;97572.84;4924042;28;20067;-42
2022/07/01 09:03:55;;;;;;;;;;;14.90;99.90;;;14.61;100.00;97563.81;4936649;28;20039;-42
2022/07/01 09:06:27;;;;;;;3.05;1.67;;;15.00;99.90;;;14.76;100.00;97562.16;4936219;28;19945;-42
2022/07/01 09:08:54;;;;;;;1.73;1.48;;;15.00;99.90;;;14.80;100.00;97568.19;4936455;28;20046;-42
2022/07/01 09:11:24;;;;;;;1.50;1.40;;;15.10;99.90;;;14.76;100.00;97553.34;4929875;28;20399;-41
2022/07/01 09:14:12;;;;;;;2.08;1.42;;;15.10;99.90;;;14.82;100.00;97575.16;4924980;29;20043;-41
2022/07/01 09:16:46;;;;;;;2.63;1.60;;;15.10;99.90;;;14.69;100.00;97569.56;4932559;28;20349;-42
2022/07/01 09:19:14;;;;;;;2.60;1.60;;;15.00;99.90;;;14.57;100.00;97572.84;4936328;29;20023;-42
2022/07/01 09:21:40;;;;;;;2.30;1.50;;;14.90;99.90;;;14.28;100.00;97527.41;4931013;28;20123;-42
2022/07/01 09:24:34;;;;;;;2.88;1.88;;;14.80;99.90;;;14.32;100.00;97528.97;4933733;28;20070;-41
2022/07/01 09:27:09;;;;;;;4.13;2.03;;;14.60;99.90;;;14.23;100.00;97555.06;4936790;28;20035;-42
2022/07/01 09:29:37;;;;;;;3.65;1.73;;;14.60;99.90;;;14.10;100.00;97584.88;4937700;28;20023;-42
2022/07/01 09:32:07;;;;;;;5.20;1.33;;;14.50;99.90;;;13.94;100.00;97587.38;4934963;29;20313;-42
2022/07/01 09:34:35;;;;;;;2.15;1.42;;;14.40;99.90;;;13.91;100.00;97581.38;4936303;28;20019;-42
2022/07/01 09:37:02;;;;;;;4.25;1.80;;;14.30;99.90;;;13.84;100.00;97586.09;4922901;29;20031;-42
2022/07/01 09:39:28;;;;;;;3.63;1.42;;;14.20;99.90;;;13.82;100.00;97595.03;4942803;28;20126;-42
2022/07/01 09:41:55;;;;;;;2.90;1.63;;;14.20;99.90;;;13.77;100.00;97586.47;4936626;28;20023;-43
2022/07/01 09:44:21;;;;;;;2.80;1.75;;;14.10;99.90;;;13.68;100.00;97579.78;4932167;28;20102;-43
2022/07/01 09:46:56;;;;;;;1.30;1.05;;;14.10;99.90;;;13.72;100.00;97576.91;4933949;28;20109;-43
2022/07/01 09:49:23;;;;;;;1.80;1.17;;;14.10;99.90;;;13.80;100.00;97581.88;4937205;28;20123;-41
2022/07/01 09:51:50;;;;;;;3.10;1.40;;;14.20;99.90;;;13.87;100.00;97585.97;4931380;28;20038;-42
2022/07/01 09:54:17;;;;;;;2.63;1.70;;;14.20;99.90;;;13.90;100.00;97572.53;4937004;28;20062;-42
2022/07/01 09:56:43;;;;;;;3.05;1.27;;;14.30;99.90;;;14.02;100.00;97567.59;4933897;28;20054;-44
2022/07/01 09:59:08;;;;;;;3.65;1.40;;;14.30;99.90;;;13.98;100.00;97573.97;4935259;28;20198;-42
2022/07/01 10:01:36;;;;;;;3.30;1.30;;;14.40;99.90;;;14.10;100.00;97576.03;4922194;28;20023;-43
2022/07/01 10:04:06;;;;;;;1.15;1.05;;;14.40;99.90;;;14.24;100.00;97580.66;4912413;29;20040;-42
2022/07/01 10:07:16;;;;;;;2.55;1.40;;;14.50;99.90;;;14.46;100.00;97584.00;4924975;28;20288;-42
2022/07/01 10:10:16;;;;;;;2.25;1.25;;;14.80;99.90;;;14.85;100.00;97574.13;4934799;28;20031;-43
2022/07/01 10:12:53;;;;;;;6.18;1.75;;;15.20;99.90;;;15.23;100.00;97590.69;4926575;28;20046;-41
2022/07/01 10:15:20;;;;;;;3.30;1.40;;;15.60;99.90;;;15.57;100.00;97594.22;4910284;29;20036;-42
2022/07/01 10:17:49;;;;;;;2.90;1.40;;;16.00;99.90;;;15.76;100.00;97602.09;4926142;29;20059;-42
2022/07/01 10:20:17;;;;;;;2.20;1.25;;;16.20;99.90;;;15.98;100.00;97598.25;4924732;28;20039;-41
2022/07/01 10:22:45;;;;;;;3.08;1.73;;;16.50;99.90;;;16.20;100.00;97593.47;4922471;28;20046;-43
2022/07/01 10:25:43;;;;;;;1.50;1.05;;;16.70;99.90;;;16.67;100.00;97601.44;4925346;28;20713;-43
2022/07/01 10:28:26;;;;;;;1.00;0.90;;;17.10;99.90;;;17.16;100.00;97601.22;4923617;28;20133;-41
2022/07/01 10:31:10;;;;;;;2.05;1.30;;;17.50;99.90;;;17.52;100.00;97602.59;4929396;28;20043;-42